Time;durP1;ratioP1;P1;durP2;ratioP2;P2;SDS_P1;SDS_P2;PMS_P1;PMS_P2;Temp;Humidity;BMP_temperature;BMP_pressure;BME280_temperature;BME280_humidity;BME280_pressure;Samples;Min_cycle;Max_cycle;Signal;HPM_P1;HPM_P2
2023/11/25 00:03:31;;;;;;;6.70;4.40;;;;;;;1.35;87.89;97454.75;216650;1265;139242;-71
2023/11/25 00:08:35;;;;;;;5.90;3.50;;;;;;;1.28;87.96;97452.93;217440;1264;139760;-70
2023/11/25 00:13:40;;;;;;;12.40;7.70;;;;;;;1.24;88.38;97456.15;216706;1268;140944;-71
2023/11/25 00:18:45;;;;;;;5.00;4.20;;;;;;;1.21;88.69;97453.89;217431;1266;139826;-69
2023/11/25 00:23:50;;;;;;;11.40;5.30;;;;;;;1.18;88.73;97454.84;217197;1265;139563;-68
2023/11/25 00:28:54;;;;;;;10.30;4.30;;;;;;;1.20;88.85;97453.71;219452;1265;140116;-70
2023/11/25 00:33:59;;;;;;;7.00;3.90;;;;;;;1.21;88.92;97459.95;219186;1265;140958;-69
2023/11/25 00:39:06;;;;;;;5.10;4.50;;;;;;;1.18;88.25;97461.75;219071;1264;139529;-71
2023/11/25 00:44:11;;;;;;;6.70;5.50;;;;;;;1.11;88.38;97469.14;217468;1264;140545;-69
2023/11/25 00:49:16;;;;;;;4.70;3.90;;;;;;;1.03;88.25;97479.84;219455;1265;141367;-70
2023/11/25 00:54:20;;;;;;;5.90;3.80;;;;;;;0.95;88.23;97488.73;219373;1264;142481;-71
2023/11/25 00:59:25;;;;;;;5.70;4.60;;;;;;;0.90;88.69;97488.16;219111;1265;141026;-70
2023/11/25 01:04:29;;;;;;;9.70;5.40;;;;;;;0.86;88.41;97498.45;217872;1264;140013;-71
2023/11/25 01:09:34;;;;;;;6.00;3.70;;;;;;;0.87;88.95;97504.35;218729;1265;139980;-71
2023/11/25 01:14:39;;;;;;;5.60;2.70;;;;;;;0.86;88.66;97507.90;217449;1265;139664;-69
2023/11/25 01:19:43;;;;;;;2.60;2.40;;;;;;;0.84;88.57;97519.39;217021;1266;139490;-69
2023/11/25 01:24:47;;;;;;;1.80;1.70;;;;;;;0.81;88.92;97527.92;218093;1264;139969;-72
2023/11/25 01:29:53;;;;;;;3.30;2.40;;;;;;;0.73;88.38;97532.23;216669;1265;220530;-70
2023/11/25 01:34:58;;;;;;;2.10;1.90;;;;;;;0.65;88.17;97540.10;216254;1264;141508;-69
2023/11/25 01:40:05;;;;;;;1.70;1.60;;;;;;;0.56;88.17;97545.81;216717;1265;139262;-70
2023/11/25 01:45:10;;;;;;;5.10;2.00;;;;;;;0.52;88.25;97553.89;217381;1265;140511;-71
2023/11/25 01:50:14;;;;;;;2.30;2.10;;;;;;;0.48;88.01;97556.98;216945;1265;140253;-71
2023/11/25 01:55:21;;;;;;;2.10;1.80;;;;;;;0.43;87.88;97562.30;217522;1268;140808;-68
2023/11/25 02:00:28;;;;;;;1.70;1.40;;;;;;;0.40;88.01;97571.18;217331;1265;140994;-69
2023/11/25 02:05:32;;;;;;;2.30;1.40;;;;;;;0.40;87.79;97574.21;217593;1266;139658;-70
2023/11/25 02:10:39;;;;;;;1.60;1.10;;;;;;;0.39;87.67;97575.98;217908;1265;139727;-69
2023/11/25 02:15:44;;;;;;;1.70;1.60;;;;;;;0.37;87.57;97582.59;217729;1265;140624;-72
2023/11/25 02:20:49;;;;;;;2.90;1.30;;;;;;;0.37;87.77;97591.42;217830;1265;140960;-67
2023/11/25 02:25:57;;;;;;;8.30;4.00;;;;;;;0.35;87.67;97595.23;216607;1264;139452;-67
2023/11/25 02:31:03;;;;;;;1.20;1.10;;;;;;;0.36;87.73;97597.27;217042;1265;139324;-67
2023/11/25 02:36:08;;;;;;;1.60;1.40;;;;;;;0.35;87.46;97609.30;216564;1266;140403;-67
2023/11/25 02:41:12;;;;;;;2.30;1.50;;;;;;;0.30;87.47;97619.00;218353;1264;139959;-68
2023/11/25 02:46:18;;;;;;;3.80;1.70;;;;;;;0.27;87.50;97630.83;217063;1265;139475;-68
2023/11/25 02:51:22;;;;;;;2.80;1.90;;;;;;;0.29;87.68;97642.30;219421;1265;139579;-68
2023/11/25 02:56:26;;;;;;;7.60;1.90;;;;;;;0.28;87.63;97648.04;219448;1265;139534;-68
2023/11/25 03:01:33;;;;;;;3.60;1.80;;;;;;;0.30;87.37;97658.73;217509;1265;139964;-69
2023/11/25 03:06:39;;;;;;;2.70;2.20;;;;;;;0.32;87.11;97660.19;218230;1265;139351;-69
2023/11/25 03:11:44;;;;;;;2.90;1.80;;;;;;;0.31;87.44;97664.52;217411;1266;141304;-69
2023/11/25 03:16:49;;;;;;;2.10;1.90;;;;;;;0.30;87.39;97668.93;216604;1268;140064;-69
2023/11/25 03:21:54;;;;;;;2.30;1.80;;;;;;;0.23;86.88;97667.08;217987;1264;221702;-71
2023/11/25 03:26:58;;;;;;;1.60;1.50;;;;;;;0.21;87.65;97674.31;217324;1266;139650;-70
2023/11/25 03:32:03;;;;;;;2.10;1.70;;;;;;;0.22;87.14;97685.11;218122;1266;139441;-70
2023/11/25 03:37:08;;;;;;;3.40;1.60;;;;;;;0.19;87.25;97688.55;216933;1264;139668;-69
2023/11/25 03:42:12;;;;;;;2.00;1.80;;;;;;;0.17;87.00;97695.44;217330;1268;139443;-69
2023/11/25 03:47:17;;;;;;;4.00;2.20;;;;;;;0.16;86.96;97701.65;216749;1265;139620;-68
2023/11/25 03:52:22;;;;;;;3.00;2.20;;;;;;;0.11;87.01;97698.11;216941;1267;141713;-69
2023/11/25 03:57:26;;;;;;;3.70;1.80;;;;;;;0.06;87.05;97703.40;217032;1265;141214;-68
2023/11/25 04:02:30;;;;;;;2.60;2.30;;;;;;;-0.00;87.07;97706.73;217821;1265;139961;-68
2023/11/25 04:07:34;;;;;;;2.20;2.10;;;;;;;-0.01;87.14;97715.00;217278;1265;139612;-70
2023/11/25 04:12:51;;;;;;;4.20;2.50;;;;;;;-0.04;86.96;97720.92;216500;1266;141632;-69
2023/11/25 04:17:55;;;;;;;6.40;3.20;;;;;;;-0.06;87.46;97734.23;217777;1266;140221;-68
2023/11/25 04:23:05;;;;;;;3.00;2.70;;;;;;;-0.04;87.29;97741.04;216934;1268;139916;-70
2023/11/25 04:28:12;;;;;;;3.60;2.10;;;;;;;-0.07;87.34;97749.60;217460;1265;140112;-71
2023/11/25 04:33:18;;;;;;;4.80;3.50;;;;;;;-0.07;87.73;97761.20;217765;1264;139760;-72
2023/11/25 04:38:23;;;;;;;3.80;3.10;;;;;;;-0.09;87.73;97767.81;217925;1265;139757;-72
2023/11/25 04:43:28;;;;;;;2.90;2.70;;;;;;;-0.12;87.54;97768.16;218827;1265;140503;-71
2023/11/25 04:48:34;;;;;;;3.50;2.10;;;;;;;-0.11;87.78;97774.77;218662;1264;139769;-70
2023/11/25 04:53:38;;;;;;;6.50;4.10;;;;;;;-0.10;87.79;97782.82;217565;1265;140509;-70
2023/11/25 04:58:42;;;;;;;4.80;3.80;;;;;;;-0.09;87.80;97790.17;218907;1266;141644;-70
2023/11/25 05:03:47;;;;;;;4.30;3.60;;;;;;;-0.07;87.80;97798.63;217616;1268;143116;-69
2023/11/25 05:08:52;;;;;;;5.20;3.20;;;;;;;-0.04;88.29;97808.20;217752;1265;140315;-69
2023/11/25 05:14:00;;;;;;;2.60;2.40;;;;;;;-0.05;88.03;97817.39;217223;1268;139779;-69
2023/11/25 05:19:05;;;;;;;4.30;3.20;;;;;;;-0.10;88.17;97821.45;217170;1265;140314;-69
2023/11/25 05:24:09;;;;;;;4.10;3.50;;;;;;;-0.11;88.21;97825.65;216575;1265;140103;-68
2023/11/25 05:29:14;;;;;;;3.60;3.20;;;;;;;-0.11;88.10;97834.64;217358;1265;141048;-70
2023/11/25 05:34:20;;;;;;;3.30;2.80;;;;;;;-0.13;88.40;97840.37;217011;1265;140050;-67
2023/11/25 05:39:25;;;;;;;3.90;3.50;;;;;;;-0.14;88.31;97849.65;216663;1265;141676;-68
2023/11/25 05:44:29;;;;;;;2.40;2.20;;;;;;;-0.15;88.03;97858.46;216889;1264;139665;-67
2023/11/25 05:49:34;;;;;;;3.70;3.30;;;;;;;-0.15;88.09;97864.35;216995;1264;140167;-67
2023/11/25 05:54:39;;;;;;;3.80;3.50;;;;;;;-0.12;88.32;97871.15;216769;1266;139685;-67
2023/11/25 05:59:43;;;;;;;3.30;2.70;;;;;;;-0.15;88.14;97886.95;217013;1265;139684;-66
2023/11/25 06:04:48;;;;;;;4.20;3.30;;;;;;;-0.18;88.10;97897.77;217719;1265;139694;-67
2023/11/25 06:09:52;;;;;;;6.00;3.90;;;;;;;-0.19;88.08;97905.47;218381;1265;140100;-70
2023/11/25 06:14:56;;;;;;;7.60;4.80;;;;;;;-0.20;88.46;97913.13;218329;1265;140452;-69
2023/11/25 06:20:01;;;;;;;5.70;4.00;;;;;;;-0.21;88.33;97916.52;218473;1265;141186;-70
2023/11/25 06:25:05;;;;;;;5.70;4.60;;;;;;;-0.21;88.06;97919.87;216770;1265;139829;-69
2023/11/25 06:30:11;;;;;;;9.00;4.10;;;;;;;-0.18;88.30;97929.07;216469;1268;140062;-68
2023/11/25 06:35:15;;;;;;;6.40;3.70;;;;;;;-0.22;87.98;97930.30;219374;1265;140301;-72
2023/11/25 06:40:19;;;;;;;8.60;3.60;;;;;;;-0.25;87.63;97933.81;218642;1265;140058;-74
2023/11/25 06:45:26;;;;;;;6.10;4.30;;;;;;;-0.27;87.67;97943.38;218331;1265;140331;-73
2023/11/25 06:50:31;;;;;;;10.00;5.80;;;;;;;-0.30;87.88;97955.80;218654;1268;140555;-74
2023/11/25 06:55:41;;;;;;;11.40;5.30;;;;;;;-0.33;87.74;97966.23;219034;1265;140680;-72
2023/11/25 07:00:46;;;;;;;8.90;5.40;;;;;;;-0.32;87.63;97971.05;217738;1268;140597;-70
2023/11/25 07:05:50;;;;;;;10.80;5.40;;;;;;;-0.36;87.24;97979.16;218578;1265;139531;-70
2023/11/25 07:10:55;;;;;;;11.90;4.30;;;;;;;-0.41;87.22;97978.09;218091;1265;139998;-71
2023/11/25 07:16:01;;;;;;;5.20;3.70;;;;;;;-0.42;87.70;97982.20;216561;1265;140551;-68
2023/11/25 07:21:07;;;;;;;7.80;4.60;;;;;;;-0.33;87.79;97982.92;217414;1265;141325;-67
2023/11/25 07:26:14;;;;;;;7.70;4.60;;;;;;;-0.22;87.79;97984.48;217359;1268;140383;-67
2023/11/25 07:31:22;;;;;;;16.60;5.80;;;;;;;-0.14;88.07;97989.93;217066;1265;140708;-67
2023/11/25 07:36:27;;;;;;;9.90;5.60;;;;;;;-0.13;87.84;97996.09;217047;1265;140554;-67
2023/11/25 07:41:32;;;;;;;8.70;4.50;;;;;;;-0.08;87.97;98004.61;216164;1265;474697;-73
2023/11/25 07:46:36;;;;;;;8.70;5.40;;;;;;;-0.01;87.72;98008.00;217568;1265;140217;-70
2023/11/25 07:51:42;;;;;;;9.80;5.80;;;;;;;0.02;87.70;98010.52;217802;1266;139957;-69
2023/11/25 07:56:47;;;;;;;6.10;3.60;;;;;;;0.05;87.71;98015.94;217722;1268;140205;-70
2023/11/25 08:01:53;;;;;;;9.30;5.60;;;;;;;0.08;87.63;98019.80;216655;1265;139313;-70
2023/11/25 08:06:57;;;;;;;9.80;5.60;;;;;;;0.15;87.46;98020.58;217065;1268;139836;-70
2023/11/25 08:12:03;;;;;;;10.80;5.50;;;;;;;0.19;87.72;98023.34;218228;1266;141007;-70
2023/11/25 08:17:07;;;;;;;11.00;6.30;;;;;;;0.26;87.95;98023.50;217549;1268;140130;-68
2023/11/25 08:22:12;;;;;;;13.70;5.60;;;;;;;0.33;87.14;98023.92;217964;1268;140410;-68
2023/11/25 08:27:17;;;;;;;7.80;5.40;;;;;;;0.39;87.52;98029.79;218254;1265;140012;-68
2023/11/25 08:32:22;;;;;;;9.80;4.90;;;;;;;0.45;86.95;98032.66;219083;1266;139490;-67
2023/11/25 08:37:27;;;;;;;6.60;4.60;;;;;;;0.59;87.19;98040.64;219472;1266;140198;-68
2023/11/25 08:42:33;;;;;;;7.90;5.40;;;;;;;0.72;87.09;98054.94;218462;1265;141120;-69
2023/11/25 08:47:39;;;;;;;6.00;3.60;;;;;;;0.89;87.32;98065.73;219390;1265;140092;-70
2023/11/25 08:52:47;;;;;;;9.90;4.40;;;;;;;1.06;86.88;98079.31;219252;1266;140030;-71
2023/11/25 08:57:51;;;;;;;5.90;4.00;;;;;;;1.19;87.00;98083.69;217868;1268;140146;-72
2023/11/25 09:02:57;;;;;;;8.60;4.10;;;;;;;1.35;86.80;98089.68;216680;1268;140447;-66
2023/11/25 09:08:06;;;;;;;6.30;3.90;;;;;;;1.41;86.40;98096.25;217814;1268;139423;-71
2023/11/25 09:13:12;;;;;;;11.00;5.30;;;;;;;1.43;86.40;98103.07;217201;1268;139265;-71
2023/11/25 09:18:18;;;;;;;5.10;3.60;;;;;;;1.46;86.43;98111.20;217581;1265;139244;-73
2023/11/25 09:23:22;;;;;;;14.50;10.10;;;;;;;1.43;86.13;98109.17;217023;1268;149418;-75
2023/11/25 09:28:27;;;;;;;23.50;14.20;;;;;;;1.35;85.92;98101.02;216690;1267;140229;-72
2023/11/25 09:33:34;;;;;;;8.70;5.10;;;;;;;1.28;86.00;98104.84;217379;1264;139940;-78
2023/11/25 09:38:38;;;;;;;6.10;5.40;;;;;;;1.28;86.08;98111.09;217352;1265;139404;-70
2023/11/25 09:43:43;;;;;;;7.10;4.20;;;;;;;1.33;86.02;98108.67;216669;1266;139892;-77
2023/11/25 09:48:47;;;;;;;6.00;4.80;;;;;;;1.35;86.10;98109.11;217501;1268;140006;-70
2023/11/25 09:53:57;;;;;;;5.70;4.10;;;;;;;1.27;86.23;98119.86;217469;1267;139494;-69
2023/11/25 09:59:05;;;;;;;6.90;4.70;;;;;;;1.23;85.95;98123.01;217229;1264;139320;-71
2023/11/25 10:04:14;;;;;;;4.60;3.50;;;;;;;1.17;86.14;98115.77;217947;1268;139439;-67
2023/11/25 10:09:22;;;;;;;5.60;3.90;;;;;;;1.16;86.27;98115.98;217083;1268;139293;-70
2023/11/25 10:14:29;;;;;;;7.50;4.60;;;;;;;1.18;86.38;98120.48;217269;1267;139657;-68
2023/11/25 10:19:33;;;;;;;4.50;3.90;;;;;;;1.13;86.57;98121.85;217408;1266;141655;-68
2023/11/25 10:25:05;;;;;;;5.20;3.30;;;;;;;1.11;86.50;98119.08;217819;1268;140123;-66
2023/11/25 10:30:15;;;;;;;3.40;2.90;;;;;;;1.17;86.34;98119.57;218909;1267;139132;-70
2023/11/25 10:35:18;;;;;;;4.80;2.20;;;;;;;1.23;86.54;98127.48;218805;1265;139696;-73
2023/11/25 10:40:24;;;;;;;5.00;2.70;;;;;;;1.26;86.39;98130.25;217785;1269;139966;-70
2023/11/25 10:45:30;;;;;;;6.50;5.60;;;;;;;1.30;86.13;98135.42;217942;1267;140971;-69
2023/11/25 10:50:36;;;;;;;6.00;3.20;;;;;;;1.39;86.09;98141.79;217260;1266;139562;-68
2023/11/25 10:55:42;;;;;;;4.20;3.70;;;;;;;1.41;86.17;98147.15;217757;1265;139932;-71
2023/11/25 11:00:51;;;;;;;5.20;4.10;;;;;;;1.42;86.16;98148.23;216847;1267;140856;-69
2023/11/25 11:06:01;;;;;;;8.20;5.30;;;;;;;1.44;86.27;98152.25;217707;1268;140195;-71
2023/11/25 11:11:17;;;;;;;17.30;8.10;;;;;;;1.46;85.78;98154.83;217482;1267;140125;-70
2023/11/25 11:16:38;;;;;;;8.10;5.10;;;;;;;1.50;85.72;98158.02;218236;1267;140106;-70
2023/11/25 11:21:47;;;;;;;6.70;5.20;;;;;;;1.61;85.93;98157.14;216575;1267;139551;-68
2023/11/25 11:27:03;;;;;;;6.20;3.00;;;;;;;1.73;85.52;98156.23;217321;1268;140410;-71
2023/11/25 11:32:10;;;;;;;2.50;2.20;;;;;;;1.86;85.65;98165.04;216623;1267;139503;-72
2023/11/25 11:37:15;;;;;;;9.90;2.60;;;;;;;1.88;85.30;98165.14;216532;1264;140685;-71
2023/11/25 11:42:26;;;;;;;4.70;4.00;;;;;;;1.81;84.81;98160.17;216680;1268;139709;-69
2023/11/25 11:47:32;;;;;;;2.90;2.60;;;;;;;1.81;84.83;98157.34;217279;1268;139485;-71
2023/11/25 11:52:48;;;;;;;4.20;3.20;;;;;;;1.86;85.06;98159.90;217878;1267;139550;-73
2023/11/25 11:58:13;;;;;;;5.10;4.50;;;;;;;1.92;84.88;98154.76;216844;1267;139437;-74
2023/11/25 12:03:18;;;;;;;2.70;2.50;;;;;;;2.05;85.18;98154.80;216853;1269;139523;-74
2023/11/25 12:08:24;;;;;;;4.90;2.70;;;;;;;2.19;85.03;98153.45;216847;1267;140602;-71
2023/11/25 12:13:29;;;;;;;3.20;2.70;;;;;;;2.29;84.90;98152.54;219437;1265;140293;-73
2023/11/25 12:18:35;;;;;;;4.80;4.20;;;;;;;2.29;84.40;98150.59;216465;1268;139474;-72
2023/11/25 12:23:39;;;;;;;4.20;3.80;;;;;;;2.32;84.51;98147.20;218911;1265;139585;-74
2023/11/25 12:28:54;;;;;;;4.30;3.20;;;;;;;2.32;84.28;98150.11;218489;1265;139543;-77
2023/11/25 12:34:01;;;;;;;4.40;3.00;;;;;;;2.38;84.14;98149.57;219156;1266;139368;-75
2023/11/25 12:39:11;;;;;;;4.10;3.80;;;;;;;2.45;84.07;98153.30;218395;1267;139586;-75
2023/11/25 12:44:16;;;;;;;5.90;4.10;;;;;;;2.43;83.72;98154.34;218826;1267;139688;-74
2023/11/25 12:49:23;;;;;;;4.00;3.40;;;;;;;2.37;83.14;98154.95;217500;1265;140070;-73
2023/11/25 12:54:45;;;;;;;4.00;3.70;;;;;;;2.28;83.27;98160.52;217155;1267;139595;-72
2023/11/25 12:59:50;;;;;;;4.40;3.50;;;;;;;2.23;83.40;98164.48;216963;1266;139811;-71
2023/11/25 13:04:56;;;;;;;3.80;3.00;;;;;;;2.16;83.19;98167.98;217747;1266;140046;-70
2023/11/25 13:10:03;;;;;;;5.40;3.40;;;;;;;2.02;82.99;98166.10;216872;1268;139752;-70
2023/11/25 13:15:09;;;;;;;8.90;6.30;;;;;;;1.92;83.27;98173.10;216453;1268;140049;-69
2023/11/25 13:20:13;;;;;;;4.30;3.80;;;;;;;1.84;83.67;98174.40;217928;1265;140973;-70
2023/11/25 13:25:17;;;;;;;4.50;3.60;;;;;;;1.74;83.53;98177.77;217156;1265;139415;-69
2023/11/25 13:30:21;;;;;;;9.70;6.00;;;;;;;1.63;83.95;98181.37;216636;1266;140067;-67
2023/11/25 13:35:29;;;;;;;11.60;6.70;;;;;;;1.54;84.31;98178.91;217423;1265;139756;-69
2023/11/25 13:40:37;;;;;;;9.50;5.70;;;;;;;1.50;84.76;98184.73;216776;1265;140066;-68
2023/11/25 13:45:42;;;;;;;7.30;6.50;;;;;;;1.42;84.81;98183.90;216799;1265;139306;-69
2023/11/25 13:50:46;;;;;;;5.90;4.70;;;;;;;1.37;85.10;98185.83;217692;1265;139547;-70
2023/11/25 13:55:51;;;;;;;4.20;3.70;;;;;;;1.27;85.34;98186.05;217568;1265;139869;-70
2023/11/25 14:00:56;;;;;;;5.90;5.20;;;;;;;1.20;85.26;98188.17;216678;1266;140237;-71
2023/11/25 14:05:59;;;;;;;9.60;6.00;;;;;;;1.17;85.92;98195.80;217586;1265;139513;-71
2023/11/25 14:11:07;;;;;;;6.30;5.60;;;;;;;1.13;85.76;98197.96;216536;1268;139586;-70
2023/11/25 14:16:12;;;;;;;5.10;4.60;;;;;;;1.04;85.62;98200.30;217973;1265;141327;-70
2023/11/25 14:21:17;;;;;;;5.60;5.10;;;;;;;0.98;85.78;98211.27;216804;1265;139644;-70
2023/11/25 14:26:21;;;;;;;11.20;6.60;;;;;;;0.90;86.11;98207.90;217829;1265;139843;-71
2023/11/25 14:31:26;;;;;;;7.40;4.80;;;;;;;0.81;86.15;98213.71;216813;1268;139930;-69
2023/11/25 14:36:30;;;;;;;4.80;4.10;;;;;;;0.76;86.10;98218.90;218096;1265;140186;-69
2023/11/25 14:41:34;;;;;;;11.80;6.70;;;;;;;0.76;86.90;98218.70;217657;1265;139730;-70
2023/11/25 14:46:39;;;;;;;8.20;5.70;;;;;;;0.75;86.53;98224.19;219154;1264;140153;-70
2023/11/25 14:51:44;;;;;;;6.80;5.20;;;;;;;0.73;86.42;98224.92;218033;1265;139885;-69
2023/11/25 14:56:49;;;;;;;10.20;7.00;;;;;;;0.71;86.60;98232.30;217138;1265;140505;-69
2023/11/25 15:01:54;;;;;;;8.90;6.30;;;;;;;0.68;86.66;98240.11;216793;1265;141693;-70
2023/11/25 15:06:59;;;;;;;6.30;5.70;;;;;;;0.64;86.57;98242.38;217661;1265;139563;-69
2023/11/25 15:12:04;;;;;;;7.00;6.00;;;;;;;0.62;86.96;98246.55;216907;1268;139776;-69
2023/11/25 15:17:12;;;;;;;10.60;7.80;;;;;;;0.59;87.01;98248.34;218250;1265;140354;-70
2023/11/25 15:22:16;;;;;;;10.80;8.20;;;;;;;0.57;87.09;98247.07;217241;1266;139806;-69
2023/11/25 15:27:20;;;;;;;12.70;6.70;;;;;;;0.57;87.02;98252.42;216880;1265;139545;-70
2023/11/25 15:32:25;;;;;;;7.80;6.70;;;;;;;0.56;86.88;98253.23;216919;1266;141140;-70
2023/11/25 15:37:32;;;;;;;9.00;6.40;;;;;;;0.55;86.87;98256.42;216663;1264;139627;-69
2023/11/25 15:42:37;;;;;;;13.60;8.90;;;;;;;0.49;87.14;98256.48;216990;1266;143408;-68
2023/11/25 15:47:41;;;;;;;12.50;8.40;;;;;;;0.50;87.41;98254.45;216871;1266;139710;-69
2023/11/25 15:52:45;;;;;;;13.50;7.30;;;;;;;0.51;87.14;98257.73;217349;1264;139818;-69
2023/11/25 15:57:48;;;;;;;15.50;11.20;;;;;;;0.49;87.18;98261.96;216663;1265;139333;-69
2023/11/25 16:02:53;;;;;;;13.50;8.50;;;;;;;0.51;87.50;98259.73;218184;1265;140203;-69
2023/11/25 16:07:58;;;;;;;11.10;7.80;;;;;;;0.52;87.90;98265.50;217134;1265;140776;-68
2023/11/25 16:13:03;;;;;;;11.80;7.30;;;;;;;0.52;87.56;98270.30;216522;1265;139701;-67
2023/11/25 16:18:07;;;;;;;10.90;8.40;;;;;;;0.53;87.88;98275.88;216502;1266;141048;-69
2023/11/25 16:23:11;;;;;;;11.20;9.20;;;;;;;0.53;87.90;98280.11;216289;1264;139270;-68
2023/11/25 16:28:14;;;;;;;18.30;8.60;;;;;;;0.51;87.95;98277.89;218113;1265;139487;-70
2023/11/25 16:33:18;;;;;;;13.20;8.50;;;;;;;0.50;87.87;98279.75;219497;1265;139364;-70
2023/11/25 16:38:25;;;;;;;12.20;9.50;;;;;;;0.51;87.91;98279.66;219511;1265;140696;-70
2023/11/25 16:43:29;;;;;;;16.00;8.70;;;;;;;0.54;87.78;98290.10;219209;1265;139836;-70
2023/11/25 16:48:33;;;;;;;20.00;11.10;;;;;;;0.59;87.79;98295.75;217465;1265;139682;-69
2023/11/25 16:53:54;;;;;;;12.20;9.00;;;;;;;0.62;87.82;98300.52;217766;1265;140083;-69
2023/11/25 16:58:58;;;;;;;12.60;9.80;;;;;;;0.66;87.66;98301.96;217286;1265;139998;-68
2023/11/25 17:04:04;;;;;;;10.40;8.40;;;;;;;0.67;88.05;98308.21;216894;1265;140082;-69
2023/11/25 17:09:08;;;;;;;16.10;9.70;;;;;;;0.64;88.15;98306.48;217719;1265;139960;-69
2023/11/25 17:14:12;;;;;;;13.30;9.70;;;;;;;0.63;87.87;98309.67;217626;1265;140172;-69
2023/11/25 17:19:16;;;;;;;16.20;9.60;;;;;;;0.59;87.72;98311.92;216812;1265;140504;-69
2023/11/25 17:24:20;;;;;;;13.80;10.10;;;;;;;0.55;87.84;98314.59;216589;1265;139717;-69
2023/11/25 17:29:23;;;;;;;17.40;9.50;;;;;;;0.53;88.14;98323.27;216795;1269;139850;-69
2023/11/25 17:34:28;;;;;;;13.20;10.10;;;;;;;0.48;88.07;98323.02;216758;1265;143919;-69
2023/11/25 17:39:33;;;;;;;13.80;9.00;;;;;;;0.42;88.00;98317.95;217425;1268;140373;-69
2023/11/25 17:44:37;;;;;;;14.70;10.40;;;;;;;0.41;88.21;98317.23;216346;1266;140591;-67
2023/11/25 17:49:41;;;;;;;15.50;8.60;;;;;;;0.39;88.06;98314.80;217240;1264;140545;-68
2023/11/25 17:54:45;;;;;;;24.40;10.80;;;;;;;0.35;88.27;98321.83;217130;1265;139798;-68
2023/11/25 17:59:49;;;;;;;16.50;12.60;;;;;;;0.31;88.25;98326.48;217171;1264;139962;-68
2023/11/25 18:04:53;;;;;;;17.40;11.30;;;;;;;0.31;88.58;98323.61;217974;1264;140007;-68
2023/11/25 18:09:58;;;;;;;18.90;12.20;;;;;;;0.32;88.70;98322.15;218674;1264;140070;-71
2023/11/25 18:15:02;;;;;;;15.90;12.40;;;;;;;0.36;88.66;98324.89;217155;1265;140956;-70
2023/11/25 18:20:07;;;;;;;21.00;9.90;;;;;;;0.38;88.89;98317.47;216733;1268;140603;-70
2023/11/25 18:25:11;;;;;;;15.70;11.00;;;;;;;0.35;88.67;98327.23;219373;1265;140463;-72
2023/11/25 18:30:16;;;;;;;17.40;10.80;;;;;;;0.29;88.54;98331.64;219538;1265;139913;-71
2023/11/25 18:35:21;;;;;;;17.50;10.80;;;;;;;0.22;88.28;98327.34;219451;1264;140833;-71
2023/11/25 18:40:27;;;;;;;17.30;9.00;;;;;;;0.22;88.30;98329.23;217996;1265;140111;-71
2023/11/25 18:45:31;;;;;;;13.70;9.60;;;;;;;0.20;88.59;98333.06;217663;1265;139882;-70
2023/11/25 18:50:37;;;;;;;15.20;10.00;;;;;;;0.16;88.33;98338.46;217427;1265;139809;-68
2023/11/25 18:55:41;;;;;;;13.70;8.40;;;;;;;0.09;88.01;98344.35;217143;1265;141304;-69
2023/11/25 19:00:46;;;;;;;13.00;8.90;;;;;;;0.07;88.40;98347.96;217059;1265;140502;-68
2023/11/25 19:05:50;;;;;;;14.40;9.50;;;;;;;0.08;88.71;98353.53;217678;1265;140692;-69
2023/11/25 19:10:55;;;;;;;15.60;11.40;;;;;;;0.08;88.98;98358.92;216803;1265;141728;-69
2023/11/25 19:16:02;;;;;;;17.80;10.50;;;;;;;0.09;89.07;98364.73;218019;1264;140112;-69
2023/11/25 19:21:12;;;;;;;18.80;8.80;;;;;;;0.09;88.68;98366.55;217253;1268;140550;-68
2023/11/25 19:26:16;;;;;;;11.80;8.00;;;;;;;0.08;88.87;98366.42;216511;1265;139369;-68
2023/11/25 19:31:23;;;;;;;11.60;8.50;;;;;;;0.07;88.84;98376.90;216371;1266;140215;-68
2023/11/25 19:36:27;;;;;;;15.50;8.90;;;;;;;0.08;89.29;98384.80;217067;1265;139708;-68
2023/11/25 19:41:30;;;;;;;12.30;8.90;;;;;;;0.08;89.05;98388.48;216416;1264;573525;-68
2023/11/25 19:46:38;;;;;;;12.80;7.30;;;;;;;0.10;88.99;98397.88;216649;1265;139718;-67
2023/11/25 19:51:42;;;;;;;;;;;;;;;0.10;89.08;98397.11;217601;1265;140136;-67
2023/11/25 19:56:51;;;;;;;9.30;5.80;;;;;;;0.08;88.84;98402.95;217174;1264;126657;-67
2023/11/25 20:01:58;;;;;;;9.80;7.50;;;;;;;0.10;88.89;98398.40;216716;1265;139754;-67
2023/11/25 20:07:03;;;;;;;12.60;7.10;;;;;;;0.10;88.90;98398.40;216742;1265;141241;-66
2023/11/25 20:12:09;;;;;;;8.60;7.50;;;;;;;0.11;88.80;98399.41;218125;1265;140170;-68
2023/11/25 20:17:16;;;;;;;13.60;6.50;;;;;;;0.14;89.06;98405.21;217663;1265;140477;-66
2023/11/25 20:22:22;;;;;;;8.10;5.90;;;;;;;0.14;88.43;98405.66;219378;1265;139951;-71
2023/11/25 20:27:26;;;;;;;10.50;7.40;;;;;;;0.15;88.57;98409.09;219155;1265;139765;-70
2023/11/25 20:32:29;;;;;;;15.70;8.90;;;;;;;0.15;88.39;98412.88;219621;1265;141067;-71
2023/11/25 20:37:36;;;;;;;9.50;7.10;;;;;;;0.15;88.10;98416.02;218696;1265;139921;-70
2023/11/25 20:42:43;;;;;;;7.10;6.40;;;;;;;0.18;88.13;98420.38;218401;1265;140295;-72
2023/11/25 20:47:48;;;;;;;13.80;9.20;;;;;;;0.18;88.25;98420.21;217412;1265;140018;-69
2023/11/25 20:52:52;;;;;;;11.30;6.90;;;;;;;0.16;87.73;98417.15;218106;1265;140506;-71
2023/11/25 20:57:57;;;;;;;11.10;6.30;;;;;;;0.07;87.89;98418.94;216835;1265;140607;-68
2023/11/25 21:03:02;;;;;;;12.60;7.30;;;;;;;-0.02;87.78;98419.51;216694;1266;139736;-68
2023/11/25 21:08:29;;;;;;;14.50;7.50;;;;;;;-0.10;87.82;98419.98;217749;1265;140817;-67
2023/11/25 21:13:36;;;;;;;9.60;7.10;;;;;;;-0.12;88.29;98424.13;217466;1265;139739;-68
2023/11/25 21:18:40;;;;;;;21.50;9.40;;;;;;;-0.16;87.96;98431.32;217530;1265;139556;-69
2023/11/25 21:23:44;;;;;;;15.30;8.30;;;;;;;-0.23;87.90;98438.30;216617;1266;140718;-69
2023/11/25 21:28:48;;;;;;;11.90;7.00;;;;;;;-0.26;88.16;98443.94;217079;1264;139990;-68
2023/11/25 21:33:52;;;;;;;12.30;8.80;;;;;;;-0.26;88.19;98455.98;217257;1264;160518;-69
2023/11/25 21:38:57;;;;;;;12.60;8.80;;;;;;;-0.31;87.99;98464.27;217152;1265;140494;-67
2023/11/25 21:44:04;;;;;;;12.80;7.00;;;;;;;-0.35;87.97;98467.42;217301;1265;140092;-67
2023/11/25 21:49:12;;;;;;;12.20;6.60;;;;;;;-0.42;88.00;98459.96;216404;1266;141299;-67
2023/11/25 21:54:16;;;;;;;13.00;7.70;;;;;;;-0.48;88.05;98460.63;216857;1265;141904;-68
2023/11/25 21:59:21;;;;;;;16.10;8.70;;;;;;;-0.54;88.16;98461.23;217163;1268;140818;-68
2023/11/25 22:04:26;;;;;;;9.40;7.80;;;;;;;-0.56;88.24;98459.98;216361;1266;140427;-67
2023/11/25 22:09:30;;;;;;;12.90;7.80;;;;;;;-0.56;88.25;98457.39;217223;1265;140150;-67
2023/11/25 22:14:34;;;;;;;12.30;7.00;;;;;;;-0.57;88.46;98468.59;217147;1266;140379;-66
2023/11/25 22:19:39;;;;;;;14.00;8.10;;;;;;;-0.57;88.36;98462.70;217456;1265;142469;-66
2023/11/25 22:24:47;;;;;;;11.60;8.10;;;;;;;-0.60;88.20;98466.77;218247;1265;140593;-67
2023/11/25 22:29:53;;;;;;;11.90;8.80;;;;;;;-0.64;88.06;98481.73;218881;1264;140574;-68
2023/11/25 22:34:58;;;;;;;16.50;8.90;;;;;;;-0.68;87.87;98489.96;217882;1265;139852;-70
2023/11/25 22:40:06;;;;;;;11.50;8.10;;;;;;;-0.72;87.92;98496.59;218221;1265;142023;-68
2023/11/25 22:45:11;;;;;;;15.30;9.10;;;;;;;-0.78;88.04;98500.12;216556;1268;139643;-66
2023/11/25 22:50:15;;;;;;;15.80;8.90;;;;;;;-0.85;87.99;98500.61;217227;1268;139944;-67
2023/11/25 22:55:20;;;;;;;12.10;7.20;;;;;;;-0.93;87.86;98502.86;218020;1268;139924;-67
2023/11/25 23:00:39;;;;;;;12.50;7.30;;;;;;;-1.02;87.71;98503.77;217567;1264;139860;-68
2023/11/25 23:05:44;;;;;;;12.90;6.30;;;;;;;-1.09;87.79;98502.26;216959;1265;141159;-68
2023/11/25 23:10:51;;;;;;;13.20;7.70;;;;;;;-1.16;87.70;98500.23;216533;1268;139795;-67
2023/11/25 23:15:58;;;;;;;15.20;5.40;;;;;;;-1.21;88.02;98498.98;216854;1265;141234;-67
2023/11/25 23:21:03;;;;;;;12.80;6.80;;;;;;;-1.27;87.86;98512.38;217493;1265;141343;-67
2023/11/25 23:26:07;;;;;;;7.70;5.50;;;;;;;-1.35;87.90;98516.42;217508;1266;140079;-70
2023/11/25 23:31:12;;;;;;;9.30;5.80;;;;;;;-1.42;87.91;98516.35;217906;1265;140800;-69